createdAt,value
2023-05-18T00:00:27.354Z,101175.00
2023-05-18T00:02:54.738Z,101179.00
2023-05-18T00:05:22.309Z,101180.00
2023-05-18T00:07:49.823Z,101182.00
2023-05-18T00:10:17.271Z,101177.00
2023-05-18T00:12:45.259Z,101182.00
2023-05-18T00:15:13.267Z,101185.00
2023-05-18T00:17:41.951Z,101200.00
2023-05-18T00:20:10.205Z,101194.00
2023-05-18T00:22:38.596Z,101198.00
2023-05-18T00:25:06.410Z,101200.00
2023-05-18T00:27:33.859Z,101205.00
2023-05-18T00:30:01.220Z,101208.00
2023-05-18T00:32:29.290Z,101201.00
2023-05-18T00:34:59.393Z,101202.00
2023-05-18T00:37:26.706Z,101200.00
2023-05-18T00:39:54.640Z,101209.00
2023-05-18T00:42:21.931Z,101193.00
2023-05-18T00:44:49.398Z,101203.00
2023-05-18T00:47:17.853Z,101203.00
2023-05-18T00:49:46.042Z,101215.00
2023-05-18T00:52:13.420Z,101202.00
2023-05-18T00:54:40.768Z,101210.00
2023-05-18T00:57:08.153Z,101208.00
2023-05-18T00:59:35.593Z,101211.00
2023-05-18T01:02:04.337Z,101218.00
2023-05-18T01:04:31.782Z,101224.00
2023-05-18T01:07:05.902Z,101218.00
2023-05-18T01:09:34.098Z,101217.00
2023-05-18T01:12:07.536Z,101217.00
2023-05-18T01:14:42.095Z,101225.00
2023-05-18T01:17:21.453Z,101222.00
2023-05-18T01:20:17.701Z,101222.00
2023-05-18T01:23:22.264Z,101221.00
2023-05-18T01:26:03.557Z,101216.00
2023-05-18T01:28:33.420Z,101217.00
2023-05-18T01:31:01.362Z,101230.00
2023-05-18T01:33:28.743Z,101223.00
2023-05-18T01:35:56.112Z,101231.00
2023-05-18T01:38:25.866Z,101237.00
2023-05-18T01:41:02.965Z,101234.00
2023-05-18T01:43:35.163Z,101232.00
2023-05-18T01:46:09.951Z,101234.00
2023-05-18T01:48:39.914Z,101242.00
2023-05-18T01:51:09.793Z,101231.00
2023-05-18T01:53:43.401Z,101237.00
2023-05-18T01:56:12.546Z,101246.00
2023-05-18T01:58:41.166Z,101237.00
2023-05-18T02:01:09.040Z,101244.00
2023-05-18T02:03:36.703Z,101235.00
2023-05-18T02:06:04.314Z,101226.00
2023-05-18T02:08:31.674Z,101230.00
2023-05-18T02:10:59.012Z,101230.00
2023-05-18T02:13:26.580Z,101233.00
2023-05-18T02:15:55.013Z,101231.00
2023-05-18T02:18:22.936Z,101228.00
2023-05-18T02:20:50.472Z,101241.00
2023-05-18T02:23:17.884Z,101238.00
2023-05-18T02:25:46.250Z,101232.00
2023-05-18T02:28:13.580Z,101229.00
2023-05-18T02:30:40.975Z,101234.00
2023-05-18T02:33:10.535Z,101235.00
2023-05-18T02:35:38.163Z,101236.00
2023-05-18T02:38:06.049Z,101235.00
2023-05-18T02:40:34.027Z,101239.00
2023-05-18T02:43:01.857Z,101255.00
2023-05-18T02:45:29.397Z,101252.00
2023-05-18T02:47:58.640Z,101248.00
2023-05-18T02:50:26.984Z,101244.00
2023-05-18T02:52:55.375Z,101243.00
2023-05-18T02:55:22.818Z,101243.00
2023-05-18T02:57:56.211Z,101251.00
2023-05-18T03:00:23.960Z,101253.00
2023-05-18T03:02:51.386Z,101265.00
2023-05-18T03:05:23.073Z,101262.00
2023-05-18T03:07:54.192Z,101259.00
2023-05-18T03:10:21.982Z,101264.00
2023-05-18T03:12:49.365Z,101261.00
2023-05-18T03:15:16.714Z,101263.00
2023-05-18T03:17:44.712Z,101268.00
2023-05-18T03:20:14.845Z,101261.00
2023-05-18T03:22:42.311Z,101262.00
2023-05-18T03:25:10.710Z,101268.00
2023-05-18T03:27:39.439Z,101269.00
2023-05-18T03:30:08.188Z,101264.00
2023-05-18T03:32:36.411Z,101263.00
2023-05-18T03:35:04.140Z,101278.00
2023-05-18T03:37:31.537Z,101277.00
2023-05-18T03:40:07.764Z,101276.00
2023-05-18T03:42:36.041Z,101283.00
2023-05-18T03:45:03.910Z,101278.00
2023-05-18T03:47:31.771Z,101271.00
2023-05-18T03:49:59.160Z,101282.00
2023-05-18T03:52:29.195Z,101283.00
2023-05-18T03:54:56.927Z,101280.00
2023-05-18T03:57:24.504Z,101282.00
2023-05-18T03:59:52.526Z,101293.00
2023-05-18T04:02:19.967Z,101279.00
2023-05-18T04:04:47.668Z,101278.00
2023-05-18T04:07:15.866Z,101285.00
2023-05-18T04:09:43.502Z,101292.00
2023-05-18T04:12:11.092Z,101295.00
2023-05-18T04:14:41.619Z,101300.00
2023-05-18T04:17:09.733Z,101293.00
2023-05-18T04:19:37.487Z,101301.00
2023-05-18T04:22:07.414Z,101302.00
2023-05-18T04:24:34.977Z,101299.00
2023-05-18T04:27:03.001Z,101302.00
2023-05-18T04:29:30.789Z,101299.00
2023-05-18T04:32:00.257Z,101306.00
2023-05-18T04:34:28.672Z,101309.00
2023-05-18T04:36:57.960Z,101304.00
2023-05-18T04:39:26.720Z,101307.00
2023-05-18T04:41:57.465Z,101319.00
2023-05-18T04:44:26.758Z,101316.00
2023-05-18T04:46:54.614Z,101314.00
2023-05-18T04:49:22.103Z,101323.00
2023-05-18T04:51:54.978Z,101327.00
2023-05-18T04:54:27.498Z,101325.00
2023-05-18T04:56:55.007Z,101335.00
2023-05-18T04:59:25.960Z,101332.00
2023-05-18T05:01:56.567Z,101337.00
2023-05-18T05:04:24.003Z,101337.00
2023-05-18T05:06:52.153Z,101338.00
2023-05-18T05:09:22.636Z,101345.00
2023-05-18T05:11:50.178Z,101351.00
2023-05-18T05:14:19.184Z,101344.00
2023-05-18T05:16:49.633Z,101346.00
2023-05-18T05:19:17.304Z,101351.00
2023-05-18T05:21:44.972Z,101356.00
2023-05-18T05:24:13.098Z,101351.00
2023-05-18T05:26:40.605Z,101350.00
2023-05-18T05:29:07.942Z,101363.00
2023-05-18T05:31:35.386Z,101365.00
2023-05-18T05:34:02.749Z,101368.00
2023-05-18T05:36:33.234Z,101363.00
2023-05-18T05:39:03.494Z,101357.00
2023-05-18T05:41:32.430Z,101369.00
2023-05-18T05:43:59.987Z,101371.00
2023-05-18T05:46:27.428Z,101372.00
2023-05-18T05:48:55.359Z,101371.00
2023-05-18T05:51:22.709Z,101384.00
2023-05-18T05:53:50.555Z,101387.00
2023-05-18T05:56:30.172Z,101382.00
2023-05-18T05:59:08.399Z,101385.00
2023-05-18T06:01:36.013Z,101384.00
2023-05-18T06:04:05.876Z,101381.00
2023-05-18T06:06:37.003Z,101384.00
2023-05-18T06:09:04.553Z,101376.00
2023-05-18T06:11:31.975Z,101381.00
2023-05-18T06:14:01.503Z,101379.00
2023-05-18T06:16:32.229Z,101380.00
2023-05-18T06:19:00.502Z,101381.00
2023-05-18T06:21:29.388Z,101387.00
2023-05-18T06:23:56.905Z,101380.00
2023-05-18T06:26:24.375Z,101393.00
2023-05-18T06:28:52.158Z,101387.00
2023-05-18T06:31:20.521Z,101390.00
2023-05-18T06:33:51.369Z,101398.00
2023-05-18T06:36:19.098Z,101393.00
2023-05-18T06:38:49.364Z,101401.00
2023-05-18T06:41:20.030Z,101398.00
2023-05-18T06:43:47.507Z,101395.00
2023-05-18T06:46:20.897Z,101398.00
2023-05-18T06:48:49.700Z,101396.00
2023-05-18T06:51:17.077Z,101400.00
2023-05-18T06:53:44.531Z,101409.00
2023-05-18T06:56:12.540Z,101415.00
2023-05-18T06:58:46.885Z,101416.00
2023-05-18T07:01:14.615Z,101401.00
2023-05-18T07:03:43.084Z,101400.00
2023-05-18T07:06:13.881Z,101403.00
2023-05-18T07:08:42.185Z,101401.00
2023-05-18T07:11:10.000Z,101393.00
2023-05-18T07:13:37.627Z,101395.00
2023-05-18T07:16:05.541Z,101398.00
2023-05-18T07:18:33.699Z,101393.00
2023-05-18T07:21:14.974Z,101398.00
2023-05-18T07:23:45.782Z,101397.00
2023-05-18T07:26:18.299Z,101394.00
2023-05-18T07:28:47.167Z,101395.00
2023-05-18T07:31:15.800Z,101395.00
2023-05-18T07:33:48.600Z,101394.00
2023-05-18T07:36:28.409Z,101394.00
2023-05-18T07:38:56.262Z,101384.00
2023-05-18T07:41:23.791Z,101383.00
2023-05-18T07:43:51.959Z,101382.00
2023-05-18T07:46:22.165Z,101387.00
2023-05-18T07:48:49.543Z,101381.00
2023-05-18T07:51:18.140Z,101383.00
2023-05-18T07:53:47.551Z,101390.00
2023-05-18T07:56:15.069Z,101382.00
2023-05-18T07:58:44.966Z,101380.00
2023-05-18T08:01:12.376Z,101387.00
2023-05-18T08:03:40.907Z,101380.00
2023-05-18T08:06:08.414Z,101379.00
2023-05-18T08:08:37.614Z,101375.00
2023-05-18T08:11:05.506Z,101374.00
2023-05-18T08:13:34.198Z,101389.00
2023-05-18T08:18:37.790Z,101388.00
2023-05-18T08:21:08.332Z,101385.00
2023-05-18T08:23:36.638Z,101398.00
2023-05-18T08:26:04.330Z,101398.00
2023-05-18T08:28:31.986Z,101381.00
2023-05-18T08:30:59.407Z,101391.00
2023-05-18T08:33:26.776Z,101383.00
2023-05-18T08:35:54.366Z,101389.00
2023-05-18T08:38:22.177Z,101382.00
2023-05-18T08:40:56.323Z,101374.00
2023-05-18T08:43:28.894Z,101373.00
2023-05-18T08:46:03.697Z,101395.00
2023-05-18T08:48:32.943Z,101386.00
2023-05-18T08:51:03.551Z,101382.00
2023-05-18T08:53:32.505Z,101376.00
2023-05-18T08:56:01.102Z,101385.00
2023-05-18T08:58:34.560Z,101380.00
2023-05-18T09:01:03.672Z,101382.00
2023-05-18T09:03:31.779Z,101384.00
2023-05-18T09:06:00.225Z,101378.00
2023-05-18T09:08:28.243Z,101374.00
2023-05-18T09:10:58.118Z,101381.00
2023-05-18T09:13:26.584Z,101384.00
2023-05-18T09:15:54.027Z,101372.00
2023-05-18T09:18:23.947Z,101366.00
2023-05-18T09:20:52.344Z,101369.00
2023-05-18T09:23:19.881Z,101363.00
2023-05-18T09:25:49.319Z,101362.00
2023-05-18T09:28:30.997Z,101362.00
2023-05-18T09:30:58.487Z,101370.00
2023-05-18T09:33:26.236Z,101365.00
2023-05-18T09:35:53.866Z,101359.00
2023-05-18T09:38:23.229Z,101373.00
2023-05-18T09:40:51.326Z,101359.00
2023-05-18T09:43:18.977Z,101362.00
2023-05-18T09:45:48.701Z,101363.00
2023-05-18T09:48:16.800Z,101357.00
2023-05-18T09:50:44.844Z,101351.00
2023-05-18T09:53:13.950Z,101355.00
2023-05-18T09:55:46.569Z,101351.00
2023-05-18T09:58:14.279Z,101346.00
2023-05-18T10:00:43.482Z,101346.00
2023-05-18T10:03:23.110Z,101348.00
2023-05-18T10:05:50.782Z,101351.00
2023-05-18T10:08:18.455Z,101355.00
2023-05-18T10:10:48.897Z,101359.00
2023-05-18T10:13:19.235Z,101351.00
2023-05-18T10:15:53.342Z,101363.00
2023-05-18T10:18:26.226Z,101348.00
2023-05-18T10:20:56.746Z,101335.00
2023-05-18T10:23:26.257Z,101351.00
2023-05-18T10:25:54.534Z,101355.00
2023-05-18T10:28:27.883Z,101335.00
2023-05-18T10:30:56.567Z,101331.00
2023-05-18T10:33:29.526Z,101341.00
2023-05-18T10:35:57.989Z,101321.00
2023-05-18T10:38:27.350Z,101320.00
2023-05-18T10:40:56.481Z,101334.00
2023-05-18T10:43:26.727Z,101326.00
2023-05-18T10:45:55.118Z,101317.00
2023-05-18T10:48:24.221Z,101334.00
2023-05-18T10:50:53.007Z,101321.00
2023-05-18T10:53:22.397Z,101332.00
2023-05-18T10:55:50.273Z,101334.00
2023-05-18T10:58:20.145Z,101322.00
2023-05-18T11:00:50.843Z,101313.00
2023-05-18T11:03:19.721Z,101316.00
2023-05-18T11:05:51.730Z,101326.00
2023-05-18T11:08:26.554Z,101321.00
2023-05-18T11:11:01.906Z,101329.00
2023-05-18T11:13:31.419Z,101312.00
2023-05-18T11:16:06.858Z,101322.00
2023-05-18T11:18:41.355Z,101321.00
2023-05-18T11:21:50.921Z,101324.00
2023-05-18T11:24:20.682Z,101322.00
2023-05-18T11:26:49.186Z,101308.00
2023-05-18T11:29:18.282Z,101313.00
2023-05-18T11:31:48.518Z,101306.00
2023-05-18T11:34:38.923Z,101306.00
2023-05-18T11:37:09.359Z,101301.00
2023-05-18T11:39:44.711Z,101306.00
2023-05-18T11:42:19.843Z,101308.00
2023-05-18T11:44:52.725Z,101306.00
2023-05-18T11:47:20.352Z,101316.00
2023-05-18T11:49:48.735Z,101298.00
2023-05-18T11:52:21.189Z,101304.00
2023-05-18T11:54:51.676Z,101302.00
2023-05-18T11:57:20.145Z,101310.00
2023-05-18T11:59:48.389Z,101301.00
2023-05-18T12:02:20.581Z,101294.00
2023-05-18T12:04:50.452Z,101308.00
2023-05-18T12:07:20.144Z,101305.00
2023-05-18T12:09:48.031Z,101303.00
2023-05-18T12:12:19.264Z,101297.00
2023-05-18T12:14:54.126Z,101297.00
2023-05-18T12:17:21.745Z,101292.00
2023-05-18T12:19:49.972Z,101289.00
2023-05-18T12:22:18.218Z,101284.00
2023-05-18T12:24:45.608Z,101294.00
2023-05-18T12:27:13.340Z,101277.00
2023-05-18T12:29:42.096Z,101280.00
2023-05-18T12:32:10.795Z,101289.00
2023-05-18T12:34:38.949Z,101299.00
2023-05-18T12:37:07.314Z,101285.00
2023-05-18T12:39:35.981Z,101291.00
2023-05-18T12:42:12.827Z,101281.00
2023-05-18T12:44:41.479Z,101277.00
2023-05-18T12:47:10.110Z,101287.00
2023-05-18T12:49:38.080Z,101298.00
2023-05-18T12:52:10.987Z,101289.00
2023-05-18T12:54:49.631Z,101293.00
2023-05-18T12:57:20.351Z,101290.00
2023-05-18T12:59:50.887Z,101282.00
2023-05-18T13:02:33.056Z,101273.00
2023-05-18T13:05:02.585Z,101282.00
2023-05-18T13:07:30.063Z,101290.00
2023-05-18T13:10:02.151Z,101289.00
2023-05-18T13:12:44.141Z,101273.00
2023-05-18T13:15:13.874Z,101279.00
2023-05-18T13:17:56.454Z,101273.00
2023-05-18T13:20:24.508Z,101266.00
2023-05-18T13:22:52.009Z,101279.00
2023-05-18T13:25:20.453Z,101275.00
2023-05-18T13:27:48.895Z,101268.00
2023-05-18T13:30:17.959Z,101265.00
2023-05-18T13:32:45.621Z,101263.00
2023-05-18T13:35:13.106Z,101270.00
2023-05-18T13:37:41.105Z,101267.00
2023-05-18T13:40:09.173Z,101287.00
2023-05-18T13:42:37.288Z,101274.00
2023-05-18T13:45:05.468Z,101272.00
2023-05-18T13:47:32.787Z,101274.00
2023-05-18T13:50:00.222Z,101275.00
2023-05-18T13:52:27.767Z,101265.00
2023-05-18T13:54:55.197Z,101264.00
2023-05-18T13:57:25.449Z,101261.00
2023-05-18T13:59:53.465Z,101257.00
2023-05-18T14:02:20.826Z,101267.00
2023-05-18T14:04:48.166Z,101266.00
2023-05-18T14:07:15.451Z,101255.00
2023-05-18T14:09:42.738Z,101263.00
2023-05-18T14:12:10.712Z,101263.00
2023-05-18T14:14:38.059Z,101256.00
2023-05-18T14:17:06.590Z,101256.00
2023-05-18T14:19:35.369Z,101245.00
2023-05-18T14:22:02.659Z,101256.00
2023-05-18T14:24:29.952Z,101251.00
2023-05-18T14:26:57.450Z,101252.00
2023-05-18T14:29:24.978Z,101245.00
2023-05-18T14:31:52.333Z,101256.00
2023-05-18T14:34:20.328Z,101255.00
2023-05-18T14:36:47.630Z,101251.00
2023-05-18T14:39:14.933Z,101261.00
2023-05-18T14:41:42.280Z,101249.00
2023-05-18T14:44:09.909Z,101260.00
2023-05-18T14:46:37.510Z,101253.00
2023-05-18T14:49:04.831Z,101234.00
2023-05-18T14:51:32.829Z,101239.00
2023-05-18T14:54:00.171Z,101241.00
2023-05-18T14:56:27.565Z,101241.00
2023-05-18T14:58:54.981Z,101241.00
2023-05-18T15:01:22.348Z,101231.00
2023-05-18T15:03:50.054Z,101240.00
2023-05-18T15:06:17.505Z,101235.00
2023-05-18T15:08:45.662Z,101230.00
2023-05-18T15:11:13.008Z,101244.00
2023-05-18T15:13:40.299Z,101241.00
2023-05-18T15:16:07.717Z,101240.00
2023-05-18T15:18:35.227Z,101231.00
2023-05-18T15:21:02.699Z,101234.00
2023-05-18T15:23:30.111Z,101226.00
2023-05-18T15:25:58.156Z,101224.00
2023-05-18T15:28:25.458Z,101233.00
2023-05-18T15:30:53.822Z,101232.00
2023-05-18T15:33:21.332Z,101229.00
2023-05-18T15:35:48.802Z,101227.00
2023-05-18T15:38:16.136Z,101228.00
2023-05-18T15:40:46.082Z,101223.00
2023-05-18T15:43:14.191Z,101231.00
2023-05-18T15:45:41.588Z,101228.00
2023-05-18T15:48:08.912Z,101227.00
2023-05-18T15:50:36.253Z,101223.00
2023-05-18T15:53:03.576Z,101218.00
2023-05-18T15:55:31.015Z,101222.00
2023-05-18T15:57:58.309Z,101222.00
2023-05-18T16:00:26.410Z,101216.00
2023-05-18T16:02:53.793Z,101207.00
2023-05-18T16:05:21.203Z,101209.00
2023-05-18T16:07:48.511Z,101201.00
2023-05-18T16:10:15.807Z,101204.00
2023-05-18T16:12:43.116Z,101204.00
2023-05-18T16:15:11.098Z,101206.00
2023-05-18T16:17:39.156Z,101200.00
2023-05-18T16:20:07.576Z,101202.00
2023-05-18T16:22:34.910Z,101193.00
2023-05-18T16:25:02.669Z,101197.00
2023-05-18T16:27:30.126Z,101209.00
2023-05-18T16:29:57.447Z,101195.00
2023-05-18T16:32:26.888Z,101186.00
2023-05-18T16:34:55.033Z,101197.00
2023-05-18T16:37:22.489Z,101191.00
2023-05-18T16:39:50.166Z,101187.00
2023-05-18T16:42:19.984Z,101190.00
2023-05-18T16:44:47.311Z,101192.00
2023-05-18T16:47:14.679Z,101185.00
2023-05-18T16:49:44.572Z,101190.00
2023-05-18T16:52:14.023Z,101188.00
2023-05-18T16:54:41.374Z,101190.00
2023-05-18T16:57:12.312Z,101191.00
2023-05-18T16:59:39.695Z,101189.00
2023-05-18T17:02:09.417Z,101181.00
2023-05-18T17:04:36.767Z,101186.00
2023-05-18T17:07:06.015Z,101189.00
2023-05-18T17:09:33.963Z,101179.00
2023-05-18T17:12:01.270Z,101185.00
2023-05-18T17:14:28.577Z,101192.00
2023-05-18T17:16:55.939Z,101181.00
2023-05-18T17:19:23.370Z,101190.00
2023-05-18T17:21:50.881Z,101185.00
2023-05-18T17:24:18.235Z,101188.00
2023-05-18T17:26:46.253Z,101190.00
2023-05-18T17:29:16.021Z,101187.00
2023-05-18T17:31:45.178Z,101188.00
2023-05-18T17:34:12.530Z,101191.00
2023-05-18T17:36:41.786Z,101186.00
2023-05-18T17:39:09.110Z,101191.00
2023-05-18T17:41:36.443Z,101185.00
2023-05-18T17:44:04.516Z,101188.00
2023-05-18T17:46:31.913Z,101178.00
2023-05-18T17:49:01.289Z,101191.00
2023-05-18T17:51:28.579Z,101183.00
2023-05-18T17:53:55.893Z,101186.00
2023-05-18T17:56:24.220Z,101182.00
2023-05-18T17:58:53.067Z,101187.00
2023-05-18T18:01:21.093Z,101180.00
2023-05-18T18:03:48.575Z,101178.00
2023-05-18T18:06:17.107Z,101187.00
2023-05-18T18:08:44.504Z,101182.00
2023-05-18T18:11:12.073Z,101192.00
2023-05-18T18:13:39.383Z,101195.00
2023-05-18T18:16:07.086Z,101190.00
2023-05-18T18:18:36.029Z,101184.00
2023-05-18T18:21:04.779Z,101196.00
2023-05-18T18:23:32.219Z,101184.00
2023-05-18T18:25:59.966Z,101189.00
2023-05-18T18:28:28.568Z,101199.00
2023-05-18T18:30:56.204Z,101194.00
2023-05-18T18:33:25.028Z,101191.00
2023-05-18T18:35:53.531Z,101201.00
2023-05-18T18:38:20.906Z,101204.00
2023-05-18T18:40:48.871Z,101197.00
2023-05-18T18:43:16.333Z,101199.00
2023-05-18T18:45:43.997Z,101200.00
2023-05-18T18:48:11.423Z,101196.00
2023-05-18T18:50:38.814Z,101194.00
2023-05-18T18:53:06.823Z,101200.00
2023-05-18T18:55:34.226Z,101205.00
2023-05-18T18:58:01.751Z,101207.00
2023-05-18T19:00:29.266Z,101200.00
2023-05-18T19:02:56.649Z,101210.00
2023-05-18T19:05:24.041Z,101211.00
2023-05-18T19:07:54.393Z,101212.00
2023-05-18T19:10:22.721Z,101214.00
2023-05-18T19:12:50.048Z,101214.00
2023-05-18T19:15:17.476Z,101217.00
2023-05-18T19:17:45.567Z,101216.00
2023-05-18T19:20:13.010Z,101221.00
2023-05-18T19:22:40.703Z,101224.00
2023-05-18T19:25:08.770Z,101225.00
2023-05-18T19:27:36.792Z,101217.00
2023-05-18T19:30:04.727Z,101227.00
2023-05-18T19:32:32.147Z,101229.00
2023-05-18T19:34:59.556Z,101237.00
2023-05-18T19:37:26.884Z,101240.00
2023-05-18T19:39:54.195Z,101243.00
2023-05-18T19:42:21.477Z,101244.00
2023-05-18T19:44:49.471Z,101244.00
2023-05-18T19:47:16.882Z,101244.00
2023-05-18T19:49:44.240Z,101242.00
2023-05-18T19:52:11.615Z,101237.00
2023-05-18T19:54:38.911Z,101245.00
2023-05-18T19:57:06.351Z,101254.00
2023-05-18T19:59:33.694Z,101243.00
2023-05-18T20:02:04.363Z,101254.00
2023-05-18T20:04:32.900Z,101247.00
2023-05-18T20:07:00.288Z,101246.00
2023-05-18T20:09:27.878Z,101245.00
2023-05-18T20:11:55.508Z,101249.00
2023-05-18T20:14:22.894Z,101247.00
2023-05-18T20:16:51.642Z,101243.00
2023-05-18T20:19:19.807Z,101240.00
2023-05-18T20:21:47.819Z,101239.00
2023-05-18T20:24:15.282Z,101244.00
2023-05-18T20:26:43.082Z,101248.00
2023-05-18T20:29:10.737Z,101239.00
2023-05-18T20:31:38.234Z,101245.00
2023-05-18T20:34:06.401Z,101241.00
2023-05-18T20:36:35.387Z,101256.00
2023-05-18T20:39:03.237Z,101245.00
2023-05-18T20:41:30.658Z,101253.00
2023-05-18T20:44:01.207Z,101246.00
2023-05-18T20:46:30.339Z,101264.00
2023-05-18T20:48:58.858Z,101259.00
2023-05-18T20:51:27.478Z,101260.00
2023-05-18T20:53:55.556Z,101263.00
2023-05-18T20:56:26.037Z,101253.00
2023-05-18T20:58:55.552Z,101249.00
2023-05-18T21:01:23.220Z,101255.00
2023-05-18T21:03:50.798Z,101255.00
2023-05-18T21:06:18.300Z,101247.00
2023-05-18T21:08:45.759Z,101255.00
2023-05-18T21:11:14.167Z,101251.00
2023-05-18T21:13:41.889Z,101250.00
2023-05-18T21:16:10.114Z,101242.00
2023-05-18T21:18:37.587Z,101239.00
2023-05-18T21:21:05.569Z,101243.00
2023-05-18T21:23:32.950Z,101253.00
2023-05-18T21:26:00.372Z,101236.00
2023-05-18T21:28:28.570Z,101230.00
2023-05-18T21:30:55.914Z,101236.00
2023-05-18T21:33:24.385Z,101242.00
2023-05-18T21:35:51.999Z,101236.00
2023-05-18T21:38:19.355Z,101240.00
2023-05-18T21:40:46.839Z,101240.00
2023-05-18T21:43:14.245Z,101233.00
2023-05-18T21:45:42.411Z,101238.00
2023-05-18T21:48:10.027Z,101235.00
2023-05-18T21:50:37.452Z,101235.00
2023-05-18T21:53:04.920Z,101222.00
2023-05-18T21:55:32.896Z,101230.00
2023-05-18T21:58:00.405Z,101232.00
2023-05-18T22:00:29.049Z,101227.00
2023-05-18T22:02:57.673Z,101231.00
2023-05-18T22:05:25.190Z,101237.00
2023-05-18T22:07:52.645Z,101230.00
2023-05-18T22:10:20.573Z,101227.00
2023-05-18T22:12:47.943Z,101219.00
2023-05-18T22:15:16.465Z,101226.00
2023-05-18T22:17:45.376Z,101218.00
2023-05-18T22:20:14.319Z,101224.00
2023-05-18T22:22:41.808Z,101227.00
2023-05-18T22:25:09.778Z,101222.00
2023-05-18T22:27:37.918Z,101225.00
2023-05-18T22:30:06.022Z,101220.00
2023-05-18T22:32:33.482Z,101220.00
2023-05-18T22:35:01.576Z,101219.00
2023-05-18T22:37:29.877Z,101208.00
2023-05-18T22:39:57.203Z,101217.00
2023-05-18T22:42:24.744Z,101214.00
2023-05-18T22:44:52.339Z,101209.00
2023-05-18T22:47:22.891Z,101212.00
2023-05-18T22:49:50.421Z,101211.00
2023-05-18T22:52:18.318Z,101208.00
2023-05-18T22:54:46.392Z,101206.00
2023-05-18T22:57:13.905Z,101205.00
2023-05-18T22:59:41.349Z,101214.00
2023-05-18T23:02:09.027Z,101198.00
2023-05-18T23:04:36.521Z,101200.00
2023-05-18T23:07:04.125Z,101204.00
2023-05-18T23:09:31.733Z,101196.00
2023-05-18T23:12:00.363Z,101203.00
2023-05-18T23:14:31.788Z,101212.00
2023-05-18T23:16:59.205Z,101208.00
2023-05-18T23:19:26.727Z,101213.00
2023-05-18T23:21:54.534Z,101216.00
2023-05-18T23:24:22.031Z,101207.00
2023-05-18T23:26:49.484Z,101214.00
2023-05-18T23:29:17.716Z,101223.00
2023-05-18T23:31:45.350Z,101220.00
2023-05-18T23:34:13.238Z,101213.00
2023-05-18T23:36:42.357Z,101225.00
2023-05-18T23:39:10.262Z,101222.00
2023-05-18T23:41:38.495Z,101219.00
2023-05-18T23:44:06.676Z,101222.00
2023-05-18T23:46:35.570Z,101222.00
2023-05-18T23:49:03.853Z,101220.00
2023-05-18T23:51:35.520Z,101216.00
2023-05-18T23:54:05.141Z,101215.00
2023-05-18T23:56:33.501Z,101213.00
2023-05-18T23:59:01.869Z,101204.00
